createdAt,value
2023-03-27T00:01:07.865Z,11.33
2023-03-27T00:04:11.244Z,11.29
2023-03-27T00:07:20.615Z,11.33
2023-03-27T00:10:24.590Z,11.26
2023-03-27T00:13:28.322Z,11.24
2023-03-27T00:16:31.970Z,11.20
2023-03-27T00:19:34.638Z,11.15
2023-03-27T00:22:37.454Z,11.13
2023-03-27T00:25:40.827Z,11.17
2023-03-27T00:28:43.704Z,11.22
2023-03-27T00:31:46.367Z,11.28
2023-03-27T00:34:49.306Z,11.16
2023-03-27T00:37:52.326Z,11.18
2023-03-27T00:40:57.608Z,11.00
2023-03-27T00:44:00.394Z,11.02
2023-03-27T00:47:04.364Z,10.93
2023-03-27T00:50:11.553Z,10.94
2023-03-27T00:53:21.186Z,10.88
2023-03-27T00:56:24.771Z,10.92
2023-03-27T00:59:32.776Z,10.90
2023-03-27T01:02:35.779Z,10.90
2023-03-27T01:05:38.728Z,10.81
2023-03-27T01:08:43.066Z,10.78
2023-03-27T01:12:11.143Z,10.79
2023-03-27T01:15:23.812Z,10.81
2023-03-27T01:18:27.019Z,10.80
2023-03-27T01:21:51.962Z,10.78
2023-03-27T01:25:11.928Z,10.78
2023-03-27T01:28:30.050Z,10.79
2023-03-27T01:31:39.101Z,10.89
2023-03-27T01:35:02.992Z,10.72
2023-03-27T01:38:24.974Z,10.69
2023-03-27T01:41:32.382Z,10.63
2023-03-27T01:44:48.338Z,10.80
2023-03-27T01:48:00.044Z,10.79
2023-03-27T01:51:17.818Z,10.63
2023-03-27T01:54:33.731Z,10.51
2023-03-27T01:57:49.379Z,10.47
2023-03-27T02:00:56.555Z,10.48
2023-03-27T02:04:03.068Z,10.43
2023-03-27T02:07:12.420Z,10.39
2023-03-27T02:10:21.753Z,10.49
2023-03-27T02:13:34.879Z,10.44
2023-03-27T02:16:42.669Z,10.43
2023-03-27T02:19:59.921Z,10.34
2023-03-27T02:23:03.027Z,10.29
2023-03-27T02:26:06.415Z,10.25
2023-03-27T02:29:21.362Z,10.17
2023-03-27T02:32:33.435Z,10.23
2023-03-27T02:35:50.014Z,10.24
2023-03-27T02:39:08.877Z,10.10
2023-03-27T02:42:34.799Z,10.10
2023-03-27T02:45:41.089Z,10.12
2023-03-27T02:48:50.101Z,10.06
2023-03-27T02:52:01.252Z,10.04
2023-03-27T02:55:09.293Z,10.24
2023-03-27T02:58:19.496Z,10.07
2023-03-27T03:01:23.655Z,10.00
2023-03-27T03:04:41.930Z,10.00
2023-03-27T03:07:46.256Z,9.97
2023-03-27T03:10:50.500Z,9.99
2023-03-27T03:13:53.126Z,9.96
2023-03-27T03:16:56.141Z,9.92
2023-03-27T03:19:58.824Z,9.95
2023-03-27T03:23:02.470Z,9.85
2023-03-27T03:26:06.624Z,9.69
2023-03-27T03:29:11.878Z,9.80
2023-03-27T03:32:16.181Z,9.84
2023-03-27T03:35:19.154Z,9.91
2023-03-27T03:38:26.580Z,9.80
2023-03-27T03:41:29.700Z,9.73
2023-03-27T03:44:37.131Z,9.69
2023-03-27T03:47:42.039Z,9.76
2023-03-27T03:50:46.909Z,9.65
2023-03-27T03:53:50.317Z,9.51
2023-03-27T03:56:53.366Z,9.56
2023-03-27T03:59:58.346Z,9.50
2023-03-27T04:03:05.700Z,9.41
2023-03-27T04:06:10.919Z,9.46
2023-03-27T04:09:13.760Z,9.45
2023-03-27T04:12:18.621Z,9.45
2023-03-27T04:15:22.085Z,9.29
2023-03-27T04:18:32.703Z,9.29
2023-03-27T04:21:36.515Z,9.39
2023-03-27T04:24:40.202Z,9.35
2023-03-27T04:27:44.228Z,9.20
2023-03-27T04:30:58.347Z,9.23
2023-03-27T04:34:05.427Z,9.21
2023-03-27T04:37:14.728Z,9.33
2023-03-27T04:40:20.897Z,9.25
2023-03-27T04:43:26.147Z,9.02
2023-03-27T04:46:29.540Z,9.10
2023-03-27T04:49:38.751Z,9.06
2023-03-27T04:52:43.119Z,9.06
2023-03-27T04:55:47.271Z,9.16
2023-03-27T04:58:49.931Z,9.04
2023-03-27T05:01:52.833Z,9.07
2023-03-27T05:04:58.395Z,9.06
2023-03-27T05:08:01.816Z,9.14
2023-03-27T05:11:04.953Z,9.07
2023-03-27T05:14:11.391Z,9.00
2023-03-27T05:17:18.246Z,8.99
2023-03-27T05:20:22.627Z,8.89
2023-03-27T05:23:26.385Z,8.88
2023-03-27T05:26:29.344Z,8.85
2023-03-27T05:29:46.673Z,8.80
2023-03-27T05:32:52.584Z,8.84
2023-03-27T05:35:58.648Z,8.76
2023-03-27T05:39:02.273Z,8.82
2023-03-27T05:42:05.527Z,8.87
2023-03-27T05:45:09.667Z,8.83
2023-03-27T05:48:14.948Z,8.76
2023-03-27T05:51:18.085Z,8.76
2023-03-27T05:54:20.808Z,8.84
2023-03-27T05:57:24.063Z,8.76
2023-03-27T06:00:34.105Z,8.71
2023-03-27T06:03:38.538Z,8.76
2023-03-27T06:06:41.859Z,8.70
2023-03-27T06:09:45.316Z,8.73
2023-03-27T06:13:08.818Z,8.85
2023-03-27T06:16:12.030Z,8.78
2023-03-27T06:19:15.747Z,8.83
2023-03-27T06:22:20.076Z,8.69
2023-03-27T06:25:24.134Z,8.74
2023-03-27T06:28:27.007Z,8.81
2023-03-27T06:31:29.719Z,8.86
2023-03-27T06:34:36.690Z,8.78
2023-03-27T06:37:42.776Z,8.92
2023-03-27T06:40:46.481Z,8.96
2023-03-27T06:43:49.755Z,8.88
2023-03-27T06:46:58.786Z,8.69
2023-03-27T06:50:02.178Z,8.72
2023-03-27T06:53:15.908Z,8.86
2023-03-27T06:56:26.567Z,8.77
2023-03-27T06:59:43.180Z,8.78
2023-03-27T07:02:47.005Z,8.88
2023-03-27T07:05:51.514Z,8.95
2023-03-27T07:08:54.600Z,8.82
2023-03-27T07:11:58.409Z,8.89
2023-03-27T07:15:00.965Z,8.87
2023-03-27T07:18:06.842Z,8.94
2023-03-27T07:21:09.788Z,8.89
2023-03-27T07:24:13.514Z,8.90
2023-03-27T07:27:16.532Z,8.85
2023-03-27T07:30:20.221Z,8.90
2023-03-27T07:33:23.346Z,9.01
2023-03-27T07:36:26.561Z,9.00
2023-03-27T07:39:30.428Z,8.86
2023-03-27T07:42:34.612Z,8.57
2023-03-27T07:45:37.804Z,8.87
2023-03-27T07:48:41.298Z,8.94
2023-03-27T07:51:50.062Z,8.88
2023-03-27T07:54:53.016Z,8.82
2023-03-27T07:58:01.311Z,8.88
2023-03-27T08:01:07.787Z,8.80
2023-03-27T08:04:11.676Z,8.92
2023-03-27T08:07:14.848Z,8.84
2023-03-27T08:10:18.144Z,8.81
2023-03-27T08:13:21.363Z,8.81
2023-03-27T08:16:27.794Z,8.89
2023-03-27T08:19:33.529Z,8.78
2023-03-27T08:22:38.449Z,8.67
2023-03-27T08:25:50.486Z,8.63
2023-03-27T08:28:54.344Z,8.62
2023-03-27T08:31:57.960Z,8.63
2023-03-27T08:35:00.797Z,8.58
2023-03-27T08:38:07.388Z,8.54
2023-03-27T08:41:38.807Z,8.59
2023-03-27T08:44:43.066Z,8.50
2023-03-27T08:47:52.292Z,8.66
2023-03-27T08:50:59.719Z,8.69
2023-03-27T08:54:26.288Z,8.65
2023-03-27T08:57:32.549Z,8.53
2023-03-27T09:00:39.712Z,8.65
2023-03-27T09:03:50.331Z,8.53
2023-03-27T09:07:11.470Z,8.70
2023-03-27T09:10:41.540Z,8.70
2023-03-27T09:13:50.042Z,8.71
2023-03-27T09:16:55.798Z,8.59
2023-03-27T09:20:06.371Z,8.69
2023-03-27T09:23:12.313Z,8.60
2023-03-27T09:26:28.948Z,8.71
2023-03-27T09:29:42.553Z,8.84
2023-03-27T09:32:51.607Z,8.88
2023-03-27T09:35:56.976Z,8.68
2023-03-27T09:39:08.440Z,8.39
2023-03-27T09:42:17.322Z,8.53
2023-03-27T09:45:21.815Z,8.39
2023-03-27T09:49:05.038Z,8.33
2023-03-27T09:52:08.568Z,8.22
2023-03-27T09:55:34.249Z,8.25
2023-03-27T09:58:43.565Z,8.29
2023-03-27T10:01:48.691Z,8.23
2023-03-27T10:04:58.290Z,8.38
2023-03-27T10:08:27.283Z,8.24
2023-03-27T10:11:33.000Z,8.27
2023-03-27T10:14:42.875Z,8.21
2023-03-27T10:17:48.173Z,8.23
2023-03-27T10:20:57.234Z,8.24
2023-03-27T10:24:04.348Z,8.25
2023-03-27T10:27:14.267Z,8.34
2023-03-27T10:30:30.541Z,8.20
2023-03-27T10:33:36.734Z,8.14
2023-03-27T10:36:47.068Z,8.24
2023-03-27T10:39:52.554Z,8.23
2023-03-27T10:43:03.674Z,8.33
2023-03-27T10:46:15.977Z,8.38
2023-03-27T10:49:22.128Z,8.36
2023-03-27T10:52:48.861Z,8.26
2023-03-27T10:56:02.652Z,8.27
2023-03-27T10:59:16.440Z,8.00
2023-03-27T11:02:38.932Z,8.17
2023-03-27T11:05:47.311Z,8.19
2023-03-27T11:08:58.346Z,8.20
2023-03-27T11:12:10.428Z,8.25
2023-03-27T11:15:36.907Z,8.34
2023-03-27T11:19:11.439Z,8.26
2023-03-27T11:22:36.608Z,8.24
2023-03-27T11:25:46.985Z,8.20
2023-03-27T11:29:02.712Z,8.30
2023-03-27T11:32:23.278Z,8.14
2023-03-27T11:35:37.700Z,8.19
2023-03-27T11:38:48.343Z,8.27
2023-03-27T11:41:57.553Z,8.08
2023-03-27T11:45:04.524Z,8.20
2023-03-27T11:48:47.694Z,8.04
2023-03-27T11:52:02.031Z,8.04
2023-03-27T11:55:16.893Z,8.02
2023-03-27T11:58:29.886Z,8.05
2023-03-27T12:01:38.289Z,8.06
2023-03-27T12:05:01.802Z,7.78
2023-03-27T12:08:10.034Z,7.87
2023-03-27T12:11:13.415Z,7.94
2023-03-27T12:14:18.507Z,7.95
2023-03-27T12:17:40.602Z,8.04
2023-03-27T12:20:52.831Z,7.88
2023-03-27T12:24:14.606Z,7.95
2023-03-27T12:27:23.358Z,7.79
2023-03-27T12:30:57.178Z,7.94
2023-03-27T12:34:05.515Z,7.79
2023-03-27T12:37:12.226Z,8.02
2023-03-27T12:40:41.893Z,8.08
2023-03-27T12:43:46.853Z,7.93
2023-03-27T12:47:26.052Z,8.09
2023-03-27T12:50:36.944Z,8.24
2023-03-27T12:53:39.940Z,8.37
2023-03-27T12:56:43.736Z,8.29
2023-03-27T12:59:46.781Z,8.36
2023-03-27T13:03:02.796Z,8.51
2023-03-27T13:06:12.717Z,8.36
2023-03-27T13:09:56.821Z,8.32
2023-03-27T13:13:05.682Z,8.16
2023-03-27T13:16:14.106Z,7.97
2023-03-27T13:19:39.327Z,8.01
2023-03-27T13:23:06.381Z,8.02
2023-03-27T13:26:37.715Z,7.95
2023-03-27T13:29:41.260Z,7.76
2023-03-27T13:33:13.743Z,7.77
2023-03-27T13:36:21.659Z,7.84
2023-03-27T13:39:25.397Z,7.70
2023-03-27T13:42:51.065Z,7.65
2023-03-27T13:45:57.372Z,7.55
2023-03-27T13:49:23.140Z,7.51
2023-03-27T13:52:53.708Z,7.40
2023-03-27T13:56:13.826Z,7.39
2023-03-27T13:59:40.689Z,7.32
2023-03-27T14:03:02.744Z,7.30
2023-03-27T14:06:27.041Z,7.40
2023-03-27T14:10:07.168Z,7.25
2023-03-27T14:13:27.844Z,7.23
2023-03-27T14:16:46.175Z,7.08
2023-03-27T14:19:55.272Z,7.10
2023-03-27T14:23:02.016Z,6.85
2023-03-27T14:26:07.323Z,6.82
2023-03-27T14:29:11.533Z,6.81
2023-03-27T14:32:18.045Z,6.79
2023-03-27T14:35:29.853Z,6.79
2023-03-27T14:38:37.390Z,6.58
2023-03-27T14:41:57.813Z,6.54
2023-03-27T14:45:32.051Z,6.43
2023-03-27T14:48:42.490Z,6.10
2023-03-27T14:51:48.094Z,6.14
2023-03-27T14:54:55.569Z,6.22
2023-03-27T14:58:10.845Z,6.30
2023-03-27T15:01:17.192Z,6.10
2023-03-27T15:04:25.127Z,6.17
2023-03-27T15:07:33.739Z,6.09
2023-03-27T15:10:37.371Z,6.16
2023-03-27T15:13:41.648Z,6.00
2023-03-27T15:16:55.323Z,5.79
2023-03-27T15:20:10.206Z,5.73
2023-03-27T15:23:28.512Z,5.70
2023-03-27T15:26:32.181Z,5.59
2023-03-27T15:29:39.041Z,5.44
2023-03-27T15:32:50.150Z,5.30
2023-03-27T15:35:56.188Z,5.41
2023-03-27T15:39:04.138Z,5.32
2023-03-27T15:42:13.042Z,5.11
2023-03-27T15:45:17.726Z,5.11
2023-03-27T15:48:31.086Z,5.01
2023-03-27T15:51:34.109Z,5.12
2023-03-27T15:54:53.998Z,5.00
2023-03-27T15:57:56.504Z,4.94
2023-03-27T16:01:02.834Z,5.02
2023-03-27T16:04:36.539Z,4.91
2023-03-27T16:07:39.048Z,4.80
2023-03-27T16:10:48.211Z,4.76
2023-03-27T16:13:59.120Z,4.79
2023-03-27T16:17:21.323Z,4.74
2023-03-27T16:20:35.544Z,4.76
2023-03-27T16:23:39.085Z,4.80
2023-03-27T16:26:41.957Z,4.67
2023-03-27T16:29:47.393Z,4.70
2023-03-27T16:32:50.203Z,4.53
2023-03-27T16:35:53.940Z,4.70
2023-03-27T16:38:57.020Z,4.73
2023-03-27T16:42:00.509Z,4.59
2023-03-27T16:45:05.335Z,4.68
2023-03-27T16:48:09.743Z,4.56
2023-03-27T16:51:13.093Z,4.49
2023-03-27T16:54:16.398Z,4.55
2023-03-27T16:57:19.425Z,4.60
2023-03-27T17:00:26.835Z,4.47
2023-03-27T17:03:29.679Z,4.52
2023-03-27T17:06:36.485Z,4.53
2023-03-27T17:09:39.333Z,4.61
2023-03-27T17:12:43.282Z,4.65
2023-03-27T17:15:49.403Z,4.70
2023-03-27T17:18:53.637Z,4.65
2023-03-27T17:21:56.343Z,4.62
2023-03-27T17:25:02.316Z,4.74
2023-03-27T17:28:07.125Z,4.75
2023-03-27T17:31:10.156Z,4.70
2023-03-27T17:34:13.290Z,4.79
2023-03-27T17:37:16.809Z,4.69
2023-03-27T17:40:23.502Z,4.81
2023-03-27T17:43:26.629Z,4.78
2023-03-27T17:46:29.643Z,4.78
2023-03-27T17:49:34.515Z,4.70
2023-03-27T17:52:37.507Z,4.72
2023-03-27T17:55:40.816Z,4.78
2023-03-27T17:58:48.556Z,4.76
2023-03-27T18:01:52.370Z,4.71
2023-03-27T18:04:55.654Z,4.61
2023-03-27T18:07:58.753Z,4.57
2023-03-27T18:11:08.004Z,4.62
2023-03-27T18:14:11.073Z,4.51
2023-03-27T18:17:15.832Z,4.45
2023-03-27T18:20:20.342Z,4.35
2023-03-27T18:23:23.673Z,4.25
2023-03-27T18:26:26.799Z,4.20
2023-03-27T18:29:34.038Z,4.05
2023-03-27T18:32:42.774Z,4.04
2023-03-27T18:35:46.547Z,4.08
2023-03-27T18:38:50.403Z,3.85
2023-03-27T18:41:54.910Z,3.85
2023-03-27T18:44:57.906Z,3.88
2023-03-27T18:48:04.121Z,3.79
2023-03-27T18:51:08.517Z,3.86
2023-03-27T18:54:13.406Z,3.77
2023-03-27T18:57:19.976Z,3.75
2023-03-27T19:00:24.212Z,3.74
2023-03-27T19:03:30.466Z,3.75
2023-03-27T19:06:35.033Z,3.71
2023-03-27T19:09:41.419Z,3.73
2023-03-27T19:12:45.037Z,3.71
2023-03-27T19:15:49.101Z,3.75
2023-03-27T19:18:54.357Z,3.74
2023-03-27T19:21:57.072Z,3.73
2023-03-27T19:25:02.313Z,3.66
2023-03-27T19:28:06.260Z,3.72
2023-03-27T19:31:11.331Z,3.66
2023-03-27T19:34:14.378Z,3.69
2023-03-27T19:37:17.704Z,3.57
2023-03-27T19:40:20.729Z,3.60
2023-03-27T19:43:23.988Z,3.53
2023-03-27T19:46:27.732Z,3.50
2023-03-27T19:49:31.859Z,3.52
2023-03-27T19:52:36.078Z,3.40
2023-03-27T19:55:39.462Z,3.43
2023-03-27T19:58:42.181Z,3.44
2023-03-27T20:01:45.350Z,3.43
2023-03-27T20:04:48.369Z,3.37
2023-03-27T20:07:51.628Z,3.25
2023-03-27T20:11:01.052Z,3.36
2023-03-27T20:14:04.026Z,3.37
2023-03-27T20:17:12.114Z,3.38
2023-03-27T20:20:21.189Z,3.33
2023-03-27T20:23:32.453Z,3.31
2023-03-27T20:26:39.468Z,3.43
2023-03-27T20:29:42.737Z,3.33
2023-03-27T20:32:45.356Z,3.40
2023-03-27T20:35:48.273Z,3.41
2023-03-27T20:38:52.881Z,3.27
2023-03-27T20:41:59.204Z,3.29
2023-03-27T20:45:04.502Z,3.37
2023-03-27T20:48:08.931Z,3.30
2023-03-27T20:51:17.669Z,3.22
2023-03-27T20:54:20.787Z,3.25
2023-03-27T20:57:24.064Z,3.23
2023-03-27T21:00:28.235Z,3.21
2023-03-27T21:03:36.858Z,3.24
2023-03-27T21:06:40.800Z,3.20
2023-03-27T21:09:43.395Z,3.33
2023-03-27T21:12:48.435Z,3.36
2023-03-27T21:15:51.060Z,3.36
2023-03-27T21:18:54.321Z,3.33
2023-03-27T21:21:57.134Z,3.31
2023-03-27T21:25:00.006Z,3.21
2023-03-27T21:28:02.576Z,3.23
2023-03-27T21:31:07.877Z,3.30
2023-03-27T21:34:10.994Z,3.18
2023-03-27T21:37:14.012Z,3.18
2023-03-27T21:40:17.117Z,3.17
2023-03-27T21:43:21.431Z,3.15
2023-03-27T21:46:24.065Z,3.14
2023-03-27T21:49:29.982Z,3.10
2023-03-27T21:52:32.577Z,3.00
2023-03-27T21:55:35.855Z,3.06
2023-03-27T21:58:38.559Z,2.97
2023-03-27T22:01:41.366Z,3.01
2023-03-27T22:04:44.514Z,3.19
2023-03-27T22:07:47.193Z,3.07
2023-03-27T22:10:57.566Z,2.97
2023-03-27T22:14:00.722Z,2.94
2023-03-27T22:17:03.630Z,2.86
2023-03-27T22:20:07.914Z,2.95
2023-03-27T22:23:11.827Z,2.95
2023-03-27T22:26:14.330Z,2.99
2023-03-27T22:29:17.508Z,3.01
2023-03-27T22:32:20.746Z,2.78
2023-03-27T22:35:23.640Z,2.86
2023-03-27T22:38:29.342Z,2.77
2023-03-27T22:41:35.322Z,2.79
2023-03-27T22:44:37.903Z,2.92
2023-03-27T22:47:40.779Z,2.86
2023-03-27T22:50:44.397Z,2.88
2023-03-27T22:53:47.259Z,2.81
2023-03-27T22:56:49.926Z,2.78
2023-03-27T22:59:53.497Z,2.86
2023-03-27T23:02:56.217Z,2.76
2023-03-27T23:05:59.349Z,2.88
2023-03-27T23:09:02.087Z,2.85
2023-03-27T23:12:05.595Z,2.77
2023-03-27T23:15:08.750Z,2.84
2023-03-27T23:18:11.677Z,2.91
2023-03-27T23:21:18.608Z,2.76
2023-03-27T23:24:21.632Z,2.83
2023-03-27T23:27:24.109Z,2.76
2023-03-27T23:30:29.212Z,2.75
2023-03-27T23:33:40.917Z,2.74
2023-03-27T23:36:44.189Z,2.64
2023-03-27T23:39:47.075Z,2.62
2023-03-27T23:42:50.018Z,2.61
2023-03-27T23:45:53.310Z,2.59
2023-03-27T23:48:56.536Z,2.50
2023-03-27T23:51:59.682Z,2.53
2023-03-27T23:55:02.711Z,2.54
2023-03-27T23:58:05.567Z,2.58
